Weather observations for the past three days for
Marysville Municipal Airport
Imperial (Metric)
Date Time (cdt) Wind (mph) Vis. (mi.) Weather Sky Cond. Temperature (ºF) Relative Humidity Wind Chill (°F) Heat Index (°F) Pressure Precipitation (in)
Air Dwpt 6 hour altimeter (in) sea level (mb) 1 hr 3 hr 6 hr
Max. Min.
06 14:35 SE 5 10.00 Fair CLR 89.6 68 49% 93 29.95 0.0
06 14:15 SE 6 10.00 Fair CLR 89.6 66.2 46% 92 29.96 0.0
06 13:55 Calm 10.00 Fair CLR 87.8 68 52% 91 29.97 0.0
06 13:35 Calm 10.00 Fair CLR 89.6 66.2 46% 92 29.99 0.0
06 13:15 Calm 10.00 Fair CLR 87.8 64.4 46% 89 29.99 0.0
06 12:55 Calm 10.00 Fair CLR 87.8 66.2 49% 90 30 0.0
06 12:35 Calm 10.00 Fair CLR 86 64.4 49% 87 30.01 0.0
06 12:15 Calm 10.00 Fair CLR 86 64.4 49% 87 30.02 0.0
06 11:55 Calm 10.00 Fair CLR 84.2 64.4 51% 86 30.03 0.0
06 11:35 Calm 10.00 Fair CLR 86 64.4 49% 87 30.03 0.0
06 11:15 Calm 10.00 Fair CLR 84.2 64.4 51% 86 30.03 0.0
06 10:55 W 3 10.00 Fair CLR 84.2 68 58% 87 30.03 0.0
06 10:35 Calm 10.00 Partly Cloudy SCT100 82.4 66.2 58% 85 30.02 0.0
06 10:15 W 3 10.00 Partly Cloudy SCT090 80.6 66.2 62% 83 30.02 0.0
06 09:55 W 8 10.00 Partly Cloudy SCT090 SCT110 80.6 69.8 70% 84 30.02 0.0
06 09:35 S 5 10.00 Partly Cloudy SCT090 80.6 68 66% 83 30.01 0.0
06 09:15 SE 3 10.00 Partly Cloudy SCT090 78.8 69.8 74% 81 30.01 0.0
06 08:55 SE 3 10.00 Fair CLR 78.8 68 70% 81 30.01 0.0
06 08:35 SE 3 10.00 Fair CLR 78.8 68 70% 81 30.01 0.0
06 08:15 SE 3 10.00 Fair CLR 77 68 74% 79 30 0.0
06 07:55 SE 3 10.00 Fair CLR 77 68 74% 79 30 0.0
06 07:35 SE 5 10.00 Fair CLR 75.2 68 78% 76 29.99 0.0
06 07:15 SE 3 10.00 Fair CLR 73.4 68 83% 29.98 0.0
06 06:55 SE 3 10.00 Fair CLR 73.4 68 83% 29.97 0.0
06 06:35 SE 3 10.00 Fair CLR 73.4 66.2 78% 29.97 0.0
06 06:15 SE 3 10.00 Fair CLR 75.2 66.2 74% 77 29.97 0.0
06 05:55 SE 3 10.00 Partly Cloudy SCT090 75.2 68 78% 76 29.97 0.0
06 05:35 SE 3 10.00 Partly Cloudy SCT090 73.4 68 83% 29.96 0.0
06 05:15 SE 5 10.00 Partly Cloudy SCT090 73.4 68 83% 29.96 0.0
06 04:55 SE 3 10.00 Partly Cloudy SCT090 73.4 68 83% 29.96 0.0
06 04:35 SE 3 10.00 Fair CLR 75.2 68 78% 76 29.96 0.0
06 04:15 SE 5 10.00 Fair CLR 73.4 68 83% 29.96 0.0
06 03:55 SE 5 10.00 Fair CLR 75.2 68 78% 76 29.95 0.0
06 03:35 SE 6 10.00 Fair CLR 75.2 68 78% 76 29.95 0.0
06 03:15 SE 7 10.00 Fair CLR 75.2 66.2 74% 77 29.95 0.0
06 02:55 SE 7 10.00 Fair CLR 75.2 68 78% 76 29.95 0.0
06 02:35 SE 7 10.00 Partly Cloudy SCT090 75.2 68 78% 76 29.95 0.0
06 02:15 SE 7 10.00 Partly Cloudy SCT090 77 68 74% 79 29.95 0.0
06 01:55 SE 7 10.00 Fair CLR 77 68 74% 79 29.96 0.0
06 01:35 SE 7 10.00 Fair CLR 77 68 74% 79 29.95 0.0
06 01:15 SE 6 10.00 Fair CLR 77 68 74% 79 29.96 0.0
06 00:55 SE 5 10.00 Fair CLR 77 68 74% 79 29.96 0.0
06 00:35 SE 6 10.00 Fair CLR 78.8 68 70% 81 29.96 0.0
06 00:15 SE 7 10.00 Fair CLR 78.8 68 70% 81 29.96 0.0
05 23:55 SE 8 10.00 Fair CLR 78.8 68 70% 81 29.95 0.0
05 23:35 SE 8 10.00 Fair CLR 78.8 68 70% 81 29.95 0.0
05 23:15 SE 7 10.00 Fair CLR 78.8 68 70% 81 29.95 0.0
05 22:55 SE 6 10.00 Fair CLR 78.8 68 70% 81 29.95 0.0
05 22:35 SE 7 10.00 Fair CLR 78.8 68 70% 81 29.95 0.0
05 22:15 SE 7 10.00 Fair CLR 78.8 68 70% 81 29.94 0.0
05 21:55 SE 6 10.00 Fair CLR 78.8 68 70% 81 29.94 0.0
05 21:35 SE 6 10.00 Fair CLR 80.6 68 66% 83 29.93 0.0
05 21:15 SE 6 10.00 Fair CLR 80.6 68 66% 83 29.92 0.0
05 20:55 SE 6 10.00 Fair CLR 80.6 68 66% 83 29.91 0.0
05 20:35 E 5 10.00 Fair CLR 82.4 68 62% 85 29.9 0.0
05 20:15 E 5 10.00 Fair CLR 82.4 68 62% 85 29.9 0.0
05 19:55 E 6 10.00 Fair CLR 84.2 68 58% 87 29.89 0.0
05 19:35 E 5 10.00 Fair CLR 86 68 55% 89 29.9 0.0
05 19:15 SE 5 10.00 Fair CLR 87.8 66.2 49% 90 29.9 0.0
05 18:55 SE 6 10.00 Fair CLR 91.4 64.4 41% 93 29.9 0.0
05 18:35 SE 8 10.00 Fair CLR 91.4 64.4 41% 93 29.9 0.0
05 18:15 SE 8 10.00 Fair CLR 95 62.6 34% 96 29.89 0.0
05 17:55 S 10 10.00 Fair CLR 95 64.4 36% 97 29.89 0.0
05 17:35 S 7 10.00 Fair CLR 95 64.4 36% 97 29.89 0.0
05 17:15 S 8 G 17 10.00 Partly Cloudy SCT070 SCT090 95 64.4 36% 97 29.9 0.0
05 16:55 SE 6 10.00 Partly Cloudy SCT070 95 66.2 39% 98 29.9 0.0
05 16:35 S 8 10.00 Partly Cloudy SCT070 SCT080 96.8 64.4 34% 99 29.9 0.0
05 16:15 SE 7 10.00 Mostly Cloudy BKN070 BKN080 96.8 64.4 34% 99 29.91 0.0
05 15:55 SE 7 10.00 Mostly Cloudy BKN070 95 66.2 39% 98 29.92 0.0
05 15:35 S 8 10.00 Fair CLR 96.8 64.4 34% 99 29.93 0.0
05 15:15 SE 8 10.00 Fair CLR 96.8 64.4 34% 99 29.93 0.0
05 14:55 SE 7 10.00 Fair CLR 96.8 66.2 37% 100 29.94 0.0
05 12:55 S 8 10.00 Fair CLR 95 68 41% 100 29.97 0.0
05 12:35 S 5 10.00 Fair CLR 93.2 68 44% 98 29.98 0.0
05 12:15 S 6 10.00 Fair CLR 91.4 68 46% 96 29.98 0.0
05 11:55 S 3 10.00 Fair CLR 91.4 68 46% 96 29.98 0.0
05 11:35 S 3 10.00 Fair CLR 91.4 68 46% 96 29.98 0.0
05 11:15 S 6 10.00 Fair CLR 89.6 68 49% 93 29.98 0.0
05 10:55 S 3 10.00 Fair CLR 89.6 68 49% 93 29.98 0.0
05 10:35 S 8 10.00 Fair CLR 87.8 66.2 49% 90 29.97 0.0
05 10:15 S 7 10.00 Fair CLR 86 66.2 52% 88 29.97 0.0
05 09:55 S 7 10.00 Fair CLR 86 66.2 52% 88 29.96 0.0
05 09:35 SW 6 10.00 Fair CLR 86 68 55% 89 29.95 0.0
05 09:15 S 5 10.00 Fair CLR 82.4 68 62% 85 29.96 0.0
05 08:55 S 3 10.00 Fair CLR 80.6 68 66% 83 29.95 0.0
05 08:35 SE 3 10.00 Fair CLR 78.8 68 70% 81 29.95 0.0
05 08:15 Calm 10.00 Fair CLR 78.8 66.2 65% 81 29.95 0.0
05 07:55 Calm 10.00 Fair CLR 77 66.2 69% 79 29.94 0.0
05 07:35 SE 5 10.00 Fair CLR 75.2 66.2 74% 77 29.93 0.0
05 07:15 SE 3 10.00 Fair CLR 75.2 64.4 69% 77 29.92 0.0
05 06:55 S 3 10.00 Fair CLR 77 64.4 65% 79 29.92 0.0
05 06:35 S 5 10.00 Fair CLR 77 64.4 65% 79 29.92 0.0
05 06:15 S 6 10.00 Fair CLR 77 64.4 65% 79 29.92 0.0
05 05:55 S 6 10.00 Fair CLR 75.2 64.4 69% 77 29.91 0.0
05 05:35 S 5 10.00 Fair CLR 75.2 64.4 69% 77 29.91 0.0
05 05:15 S 5 10.00 Fair CLR 75.2 64.4 69% 77 29.92 0.0
05 04:55 S 5 10.00 Fair CLR 75.2 64.4 69% 77 29.92 0.0
05 04:35 S 5 10.00 Fair CLR 75.2 64.4 69% 77 29.92 0.0
05 04:15 S 5 10.00 Fair CLR 75.2 64.4 69% 77 29.92 0.0
05 03:55 S 3 10.00 Fair CLR 75.2 64.4 69% 77 29.93 0.0
05 03:35 S 5 10.00 Fair CLR 75.2 64.4 69% 77 29.93 0.0
05 03:15 S 5 10.00 Fair CLR 77 64.4 65% 79 29.93 0.0
05 02:55 S 6 10.00 Fair CLR 77 64.4 65% 79 29.93 0.0
05 02:35 S 6 10.00 Fair CLR 78.8 64.4 61% 81 29.93 0.0
05 02:15 S 6 10.00 Fair CLR 77 64.4 65% 79 29.93 0.0
05 01:55 S 5 10.00 Fair CLR 77 64.4 65% 79 29.93 0.0
05 01:35 S 5 10.00 Fair CLR 78.8 64.4 61% 81 29.93 0.0
05 01:15 S 5 10.00 Fair CLR 78.8 64.4 61% 81 29.93 0.0
05 00:55 S 6 10.00 Fair CLR 78.8 64.4 61% 81 29.93 0.0
05 00:35 S 6 10.00 Fair CLR 78.8 64.4 61% 81 29.93 0.0
05 00:15 S 5 10.00 Fair CLR 75.2 64.4 69% 77 29.93 0.0
04 23:55 Calm 10.00 Fair CLR 77 64.4 65% 79 29.92 0.0
04 23:35 SE 3 10.00 Fair CLR 77 66.2 69% 79 29.93 0.0
04 23:15 Calm 10.00 Fair CLR 77 66.2 69% 79 29.93 0.0
04 22:55 SE 5 10.00 Fair CLR 77 68 74% 79 29.93 0.0
04 22:35 SE 5 10.00 Fair CLR 77 68 74% 79 29.92 0.0
04 22:15 SE 5 10.00 Fair CLR 78.8 68 70% 81 29.92 0.0
04 21:55 SE 6 10.00 Fair CLR 78.8 68 70% 81 29.9 0.0
04 21:35 SE 6 10.00 Fair CLR 78.8 68 70% 81 29.9 0.0
04 21:15 SE 5 10.00 Fair CLR 78.8 68 70% 81 29.9 0.0
04 20:55 SE 6 10.00 Fair CLR 78.8 68 70% 81 29.89 0.0
04 20:35 SE 5 10.00 Fair CLR 80.6 68 66% 83 29.88 0.0
04 20:15 SE 3 10.00 Fair CLR 82.4 68 62% 85 29.88 0.0
04 19:35 SE 5 10.00 Fair CLR 87.8 68 52% 91 29.88 0.0
04 19:15 SE 3 10.00 Fair CLR 89.6 68 49% 93 29.89 0.0
04 18:55 Calm 10.00 Fair CLR 91.4 66.2 44% 94 29.88 0.0
04 18:35 S 6 10.00 Fair CLR 91.4 66.2 44% 94 29.88 0.0
04 18:15 S 8 10.00 Fair CLR 93.2 66.2 41% 96 29.88 0.0
04 17:55 S 8 10.00 Fair CLR 93.2 66.2 41% 96 29.88 0.0
04 17:35 S 9 10.00 Fair CLR 93.2 66.2 41% 96 29.88 0.0
04 17:15 S 9 10.00 Fair CLR 95 68 41% 100 29.88 0.0
04 16:55 S 8 10.00 Fair CLR 95 66.2 39% 98 29.88 0.0
04 16:35 SE 9 10.00 Fair CLR 95 68 41% 100 29.89 0.0
04 16:15 SE 7 10.00 Fair CLR 95 68 41% 100 29.89 0.0
04 15:55 S 9 10.00 Fair CLR 95 69.8 44% 101 29.9 0.0
04 15:35 S 8 10.00 Fair CLR 95 69.8 44% 101 29.9 0.0
04 15:15 S 7 10.00 Fair CLR 95 69.8 44% 101 29.9 0.0
04 14:55 SE 6 10.00 Fair CLR 95 69.8 44% 101 29.91 0.0
04 14:35 SE 8 10.00 Fair CLR 95 69.8 44% 101 29.91 0.0
04 14:15 S 8 10.00 Fair CLR 93.2 69.8 47% 99 29.92 0.0
04 13:55 S 10 10.00 Fair CLR 93.2 71.6 50% 101 29.92 0.0
04 13:35 S 7 10.00 Fair CLR 93.2 71.6 50% 101 29.93 0.0
04 13:15 S 10 10.00 Fair CLR 91.4 71.6 52% 99 29.93 0.0
04 12:55 S 7 10.00 Fair CLR 91.4 71.6 52% 99 29.93 0.0
04 12:35 S 9 G 16 10.00 Fair CLR 89.6 69.8 52% 95 29.93 0.0
04 12:15 S 10 10.00 Fair CLR 89.6 69.8 52% 95 29.93 0.0
04 11:55 S 10 10.00 Fair CLR 87.8 71.6 59% 94 29.93 0.0
04 11:35 S 9 10.00 Fair CLR 87.8 69.8 55% 93 29.93 0.0
04 11:15 S 7 10.00 Fair CLR 87.8 69.8 55% 93 29.93 0.0
04 10:55 S 9 10.00 Fair CLR 86 69.8 59% 91 29.93 0.0
04 10:35 S 9 10.00 Fair CLR 86 69.8 59% 91 29.93 0.0
04 10:15 S 12 10.00 Fair CLR 84.2 69.8 62% 88 29.93 0.0
04 09:55 S 13 10.00 Fair CLR 82.4 68 62% 85 29.93 0.0
04 09:35 S 14 10.00 Fair CLR 82.4 68 62% 85 29.92 0.0
04 09:15 S 10 G 16 10.00 Fair CLR 80.6 68 66% 83 29.93 0.0
04 08:55 S 10 10.00 Fair CLR 80.6 68 66% 83 29.93 0.0
04 08:35 S 7 10.00 Fair CLR 78.8 68 70% 81 29.92 0.0
04 08:15 SE 8 10.00 Fair CLR 77 68 74% 79 29.92 0.0
04 07:55 S 8 10.00 Fair CLR 77 68 74% 79 29.92 0.0
04 07:35 S 8 10.00 Fair CLR 75.2 68 78% 76 29.9 0.0
04 07:15 S 7 10.00 Fair CLR 73.4 66.2 78% 29.9 0.0
04 06:55 S 6 10.00 Fair CLR 73.4 66.2 78% 29.9 0.0
04 06:35 S 8 10.00 Fair CLR 75.2 66.2 74% 77 29.9 0.0
04 06:15 S 7 10.00 Fair CLR 75.2 66.2 74% 77 29.89 0.0
04 05:55 S 7 10.00 Fair CLR 75.2 66.2 74% 77 29.89 0.0
04 05:35 S 8 10.00 Fair CLR 75.2 66.2 74% 77 29.89 0.0
04 05:15 S 7 10.00 Fair CLR 77 66.2 69% 79 29.9 0.0
04 04:55 S 6 10.00 Fair CLR 77 66.2 69% 79 29.89 0.0
04 04:35 S 6 10.00 Fair CLR 75.2 66.2 74% 77 29.89 0.0
04 04:15 S 6 10.00 Fair CLR 77 66.2 69% 79 29.89 0.0
04 03:50 S 6 10.00 Fair CLR 77 66.2 69% 79 29.89 0.0
04 03:35 S 5 10.00 Fair CLR 77 66.2 69% 79 29.89 0.0
04 03:15 S 5 10.00 Fair CLR 77 64.4 65% 79 29.89 0.0
04 02:55 S 6 10.00 Fair CLR 78.8 64.4 61% 81 29.88 0.0
04 02:35 S 6 10.00 Fair CLR 78.8 64.4 61% 81 29.88 0.0
04 02:15 S 6 10.00 Fair CLR 78.8 64.4 61% 81 29.88 0.0
04 01:55 S 6 10.00 Fair CLR 78.8 64.4 61% 81 29.88 0.0
04 01:35 S 6 10.00 Fair CLR 78.8 64.4 61% 81 29.88 0.0
04 01:15 S 7 10.00 Fair CLR 80.6 64.4 58% 82 29.88 0.0
04 00:55 S 9 7.00 Fair CLR 80.6 62.6 54% 82 29.88 0.0
04 00:35 S 9 10.00 Fair CLR 80.6 62.6 54% 82 29.87 0.0
04 00:15 S 10 10.00 Fair CLR 80.6 62.6 54% 82 29.86 0.0
03 23:55 S 10 G 20 10.00 Fair CLR 82.4 62.6 51% 83 29.86 0.0
03 23:35 S 10 G 17 10.00 Fair CLR 82.4 62.6 51% 83 29.85 0.0
03 22:55 SE 9 10.00 Fair CLR 84.2 62.6 48% 85 29.85 0.0
03 22:35 SE 10 G 16 10.00 Fair CLR 86 62.6 46% 87 29.85 0.0
03 22:15 SE 7 10.00 Fair CLR 84.2 62.6 48% 85 29.85 0.0
03 21:55 SE 8 10.00 Fair CLR 82.4 62.6 51% 83 29.85 0.0
03 21:35 SE 8 10.00 Fair CLR 82.4 62.6 51% 83 29.84 0.0
03 21:15 SE 7 10.00 Fair CLR 84.2 62.6 48% 85 29.83 0.0
03 20:55 SE 7 10.00 Fair CLR 82.4 62.6 51% 83 29.83 0.0
03 20:35 SE 7 10.00 Fair CLR 86 60.8 43% 86 29.82 0.0
03 20:15 SE 9 10.00 Fair CLR 87.8 62.6 43% 88 29.81 0.0
03 19:55 SE 9 10.00 Fair CLR 87.8 62.6 43% 88 29.81 0.0
03 19:35 S 9 10.00 Fair CLR 89.6 62.6 41% 90 29.8 0.0
03 19:15 S 8 10.00 Fair CLR 89.6 62.6 41% 90 29.8 0.0
03 18:55 S 7 10.00 Fair CLR 91.4 64.4 41% 93 29.8 0.0
03 18:35 S 8 10.00 Fair CLR 91.4 62.6 38% 92 29.81 0.0
03 18:15 S 14 G 17 10.00 Fair CLR 93.2 62.6 36% 94 29.8 0.0
03 17:55 S 13 G 17 10.00 Fair CLR 95 62.6 34% 96 29.8 0.0
03 17:35 S 12 G 20 10.00 Fair CLR 95 62.6 34% 96 29.8 0.0
03 17:15 S 14 G 22 10.00 Fair CLR 95 62.6 34% 96 29.8 0.0
03 16:55 S 15 10.00 Fair CLR 95 64.4 36% 97 29.8 0.0
03 16:35 S 14 G 17 10.00 Fair CLR 95 64.4 36% 97 29.81 0.0
03 16:15 S 16 G 22 10.00 Fair CLR 95 64.4 36% 97 29.81 0.0
03 15:55 S 14 G 18 10.00 Fair CLR 95 64.4 36% 97 29.81 0.0
03 15:35 S 15 G 22 10.00 Fair CLR 95 64.4 36% 97 29.82 0.0
03 15:15 S 16 G 23 10.00 Fair CLR 95 64.4 36% 97 29.82 0.0
Date Time (cdt) Wind (mph) Vis. (mi.) Weather Sky Cond. Air Dwpt Max. Min. Relative Humidity Wind Chill (°F) Heat Index (°F) altimeter (in) sea level (mb) 1 hr 3 hr 6 hr
6 hour
Temperature (ºF) Pressure Precipitation (in)